Time;durP1;ratioP1;P1;durP2;ratioP2;P2;SDS_P1;SDS_P2;PMS_P1;PMS_P2;Temp;Humidity;BMP_temperature;BMP_pressure;BME280_temperature;BME280_humidity;BME280_pressure;Samples;Min_cycle;Max_cycle;Signal;HPM_P1;HPM_P2
2024/01/24 00:00:36;;;;;;;10.37;4.60;;;;;11.60;100798.00;;;;4876221;29;20333;-72
2024/01/24 00:03:22;;;;;;;7.30;3.43;;;;;11.60;100773.00;;;;4881696;29;20230;-72
2024/01/24 00:06:09;;;;;;;10.47;3.53;;;;;11.60;100764.00;;;;4890723;29;20287;-72
2024/01/24 00:08:56;;;;;;;11.77;3.73;;;;;11.70;100746.00;;;;4882252;29;20222;-72
2024/01/24 00:11:43;;;;;;;9.23;3.60;;;;;11.70;100710.00;;;;4881976;29;20594;-72
2024/01/24 00:14:29;;;;;;;7.57;3.23;;;;;11.70;100714.00;;;;4884813;29;20310;-71
2024/01/24 00:17:15;;;;;;;9.37;3.30;;;;;11.80;100716.00;;;;4931274;29;20264;-72
2024/01/24 00:20:02;;;;;;;7.63;3.83;;;;;11.80;100720.00;;;;4864648;29;20707;-72
2024/01/24 00:22:49;;;;;;;12.77;3.70;;;;;11.90;100733.00;;;;4885659;28;20861;-73
2024/01/24 00:25:37;;;;;;;11.07;3.97;;;;;11.90;100717.00;;;;4910006;29;20288;-72
2024/01/24 00:28:26;;;;;;;7.83;3.30;;;;;11.90;100728.00;;;;4882822;29;20231;-72
2024/01/24 00:31:13;;;;;;;10.80;4.03;;;;;12.00;100721.00;;;;4855104;29;20215;-74
2024/01/24 00:33:59;;;;;;;10.13;3.73;;;;;12.00;100713.00;;;;4914039;28;20842;-72
2024/01/24 00:36:46;;;;;;;6.00;3.73;;;;;12.00;100716.00;;;;4888431;29;20677;-73
2024/01/24 00:39:32;;;;;;;10.57;3.63;;;;;12.00;100656.00;;;;4880635;29;20803;-72
2024/01/24 00:42:20;;;;;;;5.50;3.20;;;;;12.00;100731.00;;;;4879379;29;20223;-72
2024/01/24 00:45:07;;;;;;;12.33;3.77;;;;;12.10;100735.00;;;;4900729;28;20242;-72
2024/01/24 00:47:53;;;;;;;9.83;3.57;;;;;12.10;100717.00;;;;4885980;29;20224;-71
2024/01/24 00:50:39;;;;;;;11.00;3.20;;;;;12.10;100704.00;;;;4872591;29;20235;-73
2024/01/24 00:53:26;;;;;;;4.40;3.37;;;;;12.20;100691.00;;;;4937496;29;20227;-73
2024/01/24 00:56:12;;;;;;;6.17;3.40;;;;;12.20;100669.00;;;;4897687;29;20860;-73
2024/01/24 00:59:00;;;;;;;11.50;3.37;;;;;12.20;100671.00;;;;4884640;29;20249;-72
2024/01/24 01:01:46;;;;;;;6.30;3.50;;;;;12.30;100677.00;;;;4912222;29;20632;-71
2024/01/24 01:04:32;;;;;;;11.40;3.43;;;;;12.30;100681.00;;;;4886948;29;20873;-72
2024/01/24 01:07:19;;;;;;;7.03;3.10;;;;;12.30;100698.00;;;;4901503;29;20221;-71
2024/01/24 01:10:08;;;;;;;4.33;3.17;;;;;12.40;100678.00;;;;4948555;29;20293;-72
2024/01/24 01:12:54;;;;;;;5.37;3.20;;;;;12.50;100675.00;;;;4897982;29;20421;-72
2024/01/24 01:15:42;;;;;;;4.77;2.60;;;;;12.50;100668.00;;;;4887319;29;20729;-71
2024/01/24 01:18:29;;;;;;;4.07;2.80;;;;;12.50;100667.00;;;;4937949;29;20208;-73
2024/01/24 01:21:15;;;;;;;5.53;2.77;;;;;12.50;100668.00;;;;4881696;29;20219;-72
2024/01/24 01:24:02;;;;;;;5.43;2.77;;;;;12.50;100690.00;;;;4890281;28;20236;-71
2024/01/24 01:26:48;;;;;;;4.00;2.20;;;;;12.50;100667.00;;;;4925038;29;20239;-70
2024/01/24 01:29:34;;;;;;;4.73;2.40;;;;;12.50;100672.00;;;;4868254;29;21096;-72
2024/01/24 01:32:22;;;;;;;4.33;2.03;;;;;12.60;100679.00;;;;4906724;29;20254;-72
2024/01/24 01:35:09;;;;;;;5.97;2.37;;;;;12.70;100667.00;;;;4895184;28;20276;-73
2024/01/24 01:37:55;;;;;;;2.37;1.97;;;;;12.70;100656.00;;;;4879234;29;20271;-72
2024/01/24 01:40:42;;;;;;;2.63;1.90;;;;;12.70;100683.00;;;;4902484;29;20212;-71
2024/01/24 01:43:28;;;;;;;3.50;2.30;;;;;12.70;100666.00;;;;4876285;29;20224;-72
2024/01/24 01:46:18;;;;;;;3.30;1.67;;;;;12.60;100668.00;;;;4887275;29;20623;-71
2024/01/24 01:49:06;;;;;;;5.00;2.00;;;;;12.60;100672.00;;;;4888420;29;20248;-72
2024/01/24 01:51:52;;;;;;;3.70;1.90;;;;;12.50;100674.00;;;;4902554;29;20243;-71
2024/01/24 01:54:41;;;;;;;8.33;1.87;;;;;12.50;100658.00;;;;4887379;28;20772;-72
2024/01/24 01:57:28;;;;;;;2.93;2.33;;;;;12.40;100623.00;;;;4897771;28;20230;-72
2024/01/24 02:00:20;;;;;;;3.47;1.70;;;;;12.40;100675.00;;;;4895834;28;20937;-72
2024/01/24 02:03:07;;;;;;;2.73;1.60;;;;;12.40;100691.00;;;;4903883;29;20254;-72
2024/01/24 02:05:55;;;;;;;3.80;1.83;;;;;12.40;100677.00;;;;4886377;28;20243;-72
2024/01/24 02:08:43;;;;;;;1.97;1.77;;;;;12.40;100682.00;;;;4910746;29;20713;-72
2024/01/24 02:11:29;;;;;;;2.53;1.70;;;;;12.40;100667.00;;;;4885100;29;20560;-71
2024/01/24 02:14:15;;;;;;;5.13;2.00;;;;;12.40;100668.00;;;;4873363;28;20609;-70
2024/01/24 02:17:02;;;;;;;8.60;1.80;;;;;12.40;100657.00;;;;4918574;29;20249;-72
2024/01/24 02:19:48;;;;;;;2.83;1.70;;;;;12.50;100655.00;;;;4894380;29;20217;-71
2024/01/24 02:22:36;;;;;;;1.83;1.60;;;;;12.40;100642.00;;;;4912981;29;20283;-72
2024/01/24 02:25:24;;;;;;;1.93;1.70;;;;;12.50;100629.00;;;;4896883;28;20267;-71
2024/01/24 02:28:10;;;;;;;3.63;1.80;;;;;12.60;100652.00;;;;4868793;28;20329;-71
2024/01/24 02:30:57;;;;;;;6.23;2.13;;;;;12.60;100637.00;;;;4885962;28;20222;-71
2024/01/24 02:33:43;;;;;;;6.00;1.90;;;;;12.60;100626.00;;;;4919511;29;20720;-72
2024/01/24 02:36:29;;;;;;;4.13;1.80;;;;;12.60;100617.00;;;;4884880;29;20250;-71
2024/01/24 02:39:17;;;;;;;2.23;1.50;;;;;12.70;100634.00;;;;4882800;28;20239;-70
2024/01/24 02:42:05;;;;;;;1.30;1.20;;;;;12.70;100639.00;;;;4886382;29;20244;-71
2024/01/24 02:44:52;;;;;;;2.50;1.57;;;;;12.70;100630.00;;;;4875391;29;20660;-70
2024/01/24 02:47:38;;;;;;;2.73;1.40;;;;;12.70;100626.00;;;;4886491;29;21038;-71
2024/01/24 02:50:24;;;;;;;1.50;1.40;;;;;12.60;100602.00;;;;4902128;29;20295;-70
2024/01/24 02:53:10;;;;;;;2.90;1.40;;;;;12.60;100626.00;;;;4914274;29;20214;-71
2024/01/24 02:55:57;;;;;;;3.93;1.60;;;;;12.50;100589.00;;;;4919541;28;20646;-74
2024/01/24 02:58:44;;;;;;;1.90;1.30;;;;;12.50;100603.00;;;;4863662;29;20236;-71
2024/01/24 03:01:30;;;;;;;1.63;1.20;;;;;12.50;100620.00;;;;4880866;29;20359;-71
2024/01/24 03:04:17;;;;;;;4.67;1.40;;;;;12.60;100608.00;;;;4884552;29;20236;-72
2024/01/24 03:07:04;;;;;;;1.30;1.20;;;;;12.60;100599.00;;;;4946797;29;20216;-70
2024/01/24 03:09:50;;;;;;;2.37;1.90;;;;;12.60;100601.00;;;;4934018;29;20360;-71
2024/01/24 03:12:37;;;;;;;2.50;1.17;;;;;12.70;100602.00;;;;4867425;29;20360;-70
2024/01/24 03:15:25;;;;;;;1.43;1.33;;;;;12.70;100588.00;;;;4892454;29;20233;-71
2024/01/24 03:18:12;;;;;;;1.13;1.10;;;;;12.70;100597.00;;;;4925405;29;20233;-71
2024/01/24 03:20:59;;;;;;;1.20;1.10;;;;;12.70;100611.00;;;;4909431;29;20265;-71
2024/01/24 03:23:45;;;;;;;1.27;1.17;;;;;12.60;100605.00;;;;4897437;29;20221;-70
2024/01/24 03:26:31;;;;;;;1.80;1.37;;;;;12.60;100617.00;;;;4883148;28;20296;-71
2024/01/24 03:29:19;;;;;;;1.30;1.20;;;;;12.60;100563.00;;;;4899923;29;20318;-71
2024/01/24 03:32:07;;;;;;;1.30;1.20;;;;;12.60;100596.00;;;;4904480;29;20240;-70
2024/01/24 03:34:57;;;;;;;1.57;1.47;;;;;12.60;100617.00;;;;4898810;29;20271;-71
2024/01/24 03:37:43;;;;;;;1.20;1.10;;;;;12.50;100632.00;;;;4859893;29;20351;-72
2024/01/24 03:40:30;;;;;;;1.50;1.20;;;;;12.50;100643.00;;;;4867974;29;20221;-71
2024/01/24 03:43:16;;;;;;;1.63;1.00;;;;;12.50;100654.00;;;;4894316;29;20288;-71
2024/01/24 03:46:02;;;;;;;1.30;1.20;;;;;12.50;100646.00;;;;4877732;29;20239;-71
2024/01/24 03:48:50;;;;;;;1.20;1.10;;;;;12.40;100637.00;;;;4905821;29;20285;-70
2024/01/24 03:51:36;;;;;;;1.60;1.27;;;;;12.40;100642.00;;;;4907046;29;20228;-71
2024/01/24 03:54:23;;;;;;;1.30;1.20;;;;;12.40;100635.00;;;;4868016;29;20311;-71
2024/01/24 03:57:09;;;;;;;1.07;0.97;;;;;12.40;100619.00;;;;4913265;29;20326;-73
2024/01/24 03:59:55;;;;;;;0.90;0.90;;;;;12.40;100636.00;;;;4887209;29;20299;-73
2024/01/24 04:02:44;;;;;;;1.33;1.23;;;;;12.40;100679.00;;;;4876813;28;20210;-71
2024/01/24 04:05:32;;;;;;;1.37;1.20;;;;;12.40;100656.00;;;;4878351;28;20239;-72
2024/01/24 04:08:19;;;;;;;1.53;1.20;;;;;12.40;100666.00;;;;4844803;29;21999;-69
2024/01/24 04:11:05;;;;;;;1.87;1.47;;;;;12.40;100667.00;;;;4900096;29;20235;-72
2024/01/24 04:13:53;;;;;;;1.10;1.10;;;;;12.40;100671.00;;;;4887466;29;20737;-71
2024/01/24 04:16:40;;;;;;;1.70;1.60;;;;;12.40;100638.00;;;;4907409;29;20240;-71
2024/01/24 04:19:26;;;;;;;1.30;1.20;;;;;12.40;100638.00;;;;4884417;29;20745;-72
2024/01/24 04:22:15;;;;;;;1.60;1.50;;;;;12.40;100624.00;;;;4918955;29;20225;-72
2024/01/24 04:25:02;;;;;;;1.33;1.20;;;;;12.30;100665.00;;;;4904812;29;20237;-72
2024/01/24 04:27:48;;;;;;;1.73;1.00;;;;;12.30;100633.00;;;;4880903;29;20408;-72
2024/01/24 04:30:35;;;;;;;1.13;1.03;;;;;12.30;100640.00;;;;4905441;29;20368;-73
2024/01/24 04:33:21;;;;;;;2.17;1.10;;;;;12.30;100641.00;;;;4919313;29;20326;-72
2024/01/24 04:36:09;;;;;;;1.77;1.00;;;;;12.30;100664.00;;;;4945399;29;20248;-71
2024/01/24 04:38:56;;;;;;;1.83;1.30;;;;;12.20;100682.00;;;;4873960;29;20230;-71
2024/01/24 04:41:45;;;;;;;1.40;0.90;;;;;12.20;100691.00;;;;4891529;29;20231;-70
2024/01/24 04:44:31;;;;;;;1.27;1.17;;;;;12.20;100701.00;;;;4882579;28;20236;-71
2024/01/24 04:47:17;;;;;;;2.10;1.30;;;;;12.10;100705.00;;;;4886429;29;20370;-70
2024/01/24 04:50:04;;;;;;;1.87;1.07;;;;;12.20;100712.00;;;;4922951;29;20318;-72
2024/01/24 04:52:50;;;;;;;3.77;1.43;;;;;12.20;100709.00;;;;4869270;28;20232;-70
2024/01/24 04:55:38;;;;;;;3.23;1.20;;;;;12.20;100686.00;;;;4902419;29;20319;-71
2024/01/24 04:58:24;;;;;;;1.17;1.00;;;;;12.20;100711.00;;;;4886328;29;20299;-71
2024/01/24 05:01:11;;;;;;;4.27;1.10;;;;;12.20;100700.00;;;;4845200;29;20345;-71
2024/01/24 05:03:58;;;;;;;3.43;1.10;;;;;12.10;100707.00;;;;4889626;29;20318;-70
2024/01/24 05:06:44;;;;;;;1.63;1.40;;;;;12.10;100717.00;;;;4864485;29;20225;-71
2024/01/24 05:09:30;;;;;;;3.37;1.30;;;;;12.20;100693.00;;;;4844281;29;20337;-73
2024/01/24 05:12:18;;;;;;;1.30;1.20;;;;;12.10;100682.00;;;;4891696;29;21039;-72
2024/01/24 05:15:08;;;;;;;3.17;1.53;;;;;12.10;100687.00;;;;4918619;29;20250;-72
2024/01/24 05:17:55;;;;;;;2.40;1.20;;;;;12.20;100721.00;;;;4913229;29;20283;-71
2024/01/24 05:20:41;;;;;;;5.40;1.50;;;;;12.20;100715.00;;;;4918661;29;21040;-72
2024/01/24 05:23:28;;;;;;;2.53;1.33;;;;;12.20;100729.00;;;;4943953;28;20344;-71
2024/01/24 05:26:14;;;;;;;3.03;1.67;;;;;12.20;100715.00;;;;4897435;28;20339;-69
2024/01/24 05:29:01;;;;;;;4.07;1.30;;;;;12.20;100746.00;;;;4887456;29;20747;-70
2024/01/24 05:31:48;;;;;;;3.57;1.13;;;;;12.30;100759.00;;;;4868386;28;20589;-71
2024/01/24 05:34:34;;;;;;;4.77;1.53;;;;;12.30;100755.00;;;;4907343;28;20776;-71
2024/01/24 05:37:20;;;;;;;3.40;1.40;;;;;12.30;100747.00;;;;4892393;28;20251;-70
2024/01/24 05:40:09;;;;;;;6.17;2.03;;;;;12.30;100753.00;;;;4929497;29;20229;-70
2024/01/24 05:42:55;;;;;;;3.80;1.30;;;;;12.30;100778.00;;;;4864817;29;20250;-71
2024/01/24 05:45:43;;;;;;;6.13;1.50;;;;;12.40;100785.00;;;;4851336;29;20909;-71
2024/01/24 05:48:29;;;;;;;7.67;1.60;;;;;12.30;100796.00;;;;4913953;29;20717;-71
2024/01/24 05:51:15;;;;;;;2.60;1.53;;;;;12.30;100799.00;;;;4867595;29;20368;-70
2024/01/24 05:54:02;;;;;;;3.93;1.20;;;;;12.30;100796.00;;;;4915565;28;20219;-71
2024/01/24 05:56:48;;;;;;;4.70;1.70;;;;;12.30;100825.00;;;;4911450;29;20391;-71
2024/01/24 05:59:35;;;;;;;9.17;1.90;;;;;12.30;100811.00;;;;4885240;29;20228;-72
2024/01/24 06:02:23;;;;;;;8.57;2.47;;;;;12.30;100807.00;;;;4889156;29;20339;-70
2024/01/24 06:05:09;;;;;;;5.93;2.00;;;;;12.30;100823.00;;;;4884821;28;20261;-71
2024/01/24 06:07:56;;;;;;;6.23;1.93;;;;;12.20;100829.00;;;;4898387;29;20707;-70
2024/01/24 06:10:43;;;;;;;7.33;1.80;;;;;12.20;100808.00;;;;4868441;29;20236;-69
2024/01/24 06:13:29;;;;;;;6.80;1.40;;;;;12.10;100829.00;;;;4893477;29;20307;-72
2024/01/24 06:16:16;;;;;;;7.90;2.13;;;;;12.10;100849.00;;;;4911317;29;20732;-71
2024/01/24 06:19:04;;;;;;;4.13;1.40;;;;;12.20;100829.00;;;;4914895;29;20283;-71
2024/01/24 06:21:50;;;;;;;7.33;1.97;;;;;12.20;100821.00;;;;4911183;29;20251;-71
2024/01/24 06:24:36;;;;;;;10.33;1.83;;;;;12.20;100807.00;;;;4897245;29;20289;-69
2024/01/24 06:27:23;;;;;;;14.97;2.23;;;;;12.20;100817.00;;;;4892142;29;20242;-71
2024/01/24 06:30:10;;;;;;;10.27;2.30;;;;;12.20;100825.00;;;;4909827;29;20307;-70
2024/01/24 06:33:08;;;;;;;6.87;2.13;;;;;12.20;100833.00;;;;4895453;29;20231;-69
2024/01/24 06:35:57;;;;;;;13.23;1.97;;;;;12.20;100849.00;;;;4853738;29;20256;-69
2024/01/24 06:38:43;;;;;;;10.67;2.50;;;;;12.20;100847.00;;;;4877449;29;20407;-69
2024/01/24 06:41:31;;;;;;;12.83;2.30;;;;;12.20;100852.00;;;;4918138;29;20236;-69
2024/01/24 06:44:17;;;;;;;4.33;1.60;;;;;12.20;100864.00;;;;4923214;29;20247;-70
2024/01/24 06:47:04;;;;;;;4.83;1.63;;;;;12.20;100879.00;;;;4878491;29;20733;-70
2024/01/24 06:49:51;;;;;;;13.87;2.70;;;;;12.30;100891.00;;;;4906858;29;20241;-70
2024/01/24 06:52:39;;;;;;;10.10;2.27;;;;;12.20;100884.00;;;;4893357;29;20226;-69
2024/01/24 06:55:25;;;;;;;5.50;2.27;;;;;12.20;100889.00;;;;4861029;28;20269;-70
2024/01/24 06:58:11;;;;;;;7.40;2.13;;;;;12.20;100897.00;;;;4910113;29;20244;-70
2024/01/24 07:00:57;;;;;;;7.50;1.87;;;;;12.20;100903.00;;;;4871265;29;20288;-70
2024/01/24 07:03:45;;;;;;;8.37;2.20;;;;;12.10;100896.00;;;;4902032;29;20230;-71
2024/01/24 07:06:31;;;;;;;9.30;1.80;;;;;12.20;100900.00;;;;4885954;29;20233;-72
2024/01/24 07:09:19;;;;;;;13.67;2.33;;;;;12.20;100909.00;;;;4891300;28;20572;-71
2024/01/24 07:12:06;;;;;;;11.83;2.77;;;;;12.30;100924.00;;;;4873926;29;20212;-70
2024/01/24 07:14:53;;;;;;;10.80;2.50;;;;;12.20;100942.00;;;;4909078;29;20369;-71
2024/01/24 07:17:39;;;;;;;9.53;2.40;;;;;12.20;100952.00;;;;4893699;28;20209;-71
2024/01/24 07:20:26;;;;;;;8.03;2.50;;;;;12.10;100967.00;;;;4888348;29;20280;-70
2024/01/24 07:23:12;;;;;;;6.90;2.47;;;;;12.10;100977.00;;;;4904667;29;20226;-72
2024/01/24 07:26:00;;;;;;;5.47;2.10;;;;;12.10;100983.00;;;;4936017;29;20322;-71
2024/01/24 07:28:46;;;;;;;7.00;2.53;;;;;12.10;100996.00;;;;4908480;29;20234;-71
2024/01/24 07:31:32;;;;;;;11.33;2.67;;;;;12.10;100972.00;;;;4882971;29;20228;-71
2024/01/24 07:34:19;;;;;;;11.67;3.17;;;;;12.00;100989.00;;;;4916232;28;20245;-72
2024/01/24 07:37:07;;;;;;;5.30;2.00;;;;;12.10;101007.00;;;;4875132;28;20282;-71
2024/01/24 07:39:54;;;;;;;6.70;2.30;;;;;12.10;101001.00;;;;4866131;29;20243;-71
2024/01/24 07:42:43;;;;;;;15.80;3.07;;;;;12.10;101020.00;;;;4836767;29;20708;-71
2024/01/24 07:45:30;;;;;;;13.73;3.10;;;;;12.00;101035.00;;;;4917368;28;20898;-72
2024/01/24 07:48:19;;;;;;;10.37;2.07;;;;;12.00;100986.00;;;;4918010;28;20241;-72
2024/01/24 07:51:05;;;;;;;10.07;2.30;;;;;11.90;101003.00;;;;4857911;29;20245;-70
2024/01/24 07:53:51;;;;;;;6.20;2.23;;;;;12.00;101025.00;;;;4877672;29;20234;-71
2024/01/24 07:56:38;;;;;;;7.07;2.10;;;;;12.10;101037.00;;;;4900777;28;20286;-71
2024/01/24 07:59:26;;;;;;;14.67;2.67;;;;;12.10;101032.00;;;;4895973;29;20284;-74
2024/01/24 08:02:14;;;;;;;8.70;2.33;;;;;12.00;101047.00;;;;4858407;29;20339;-73
2024/01/24 08:05:00;;;;;;;16.40;3.17;;;;;11.90;101046.00;;;;4862393;28;20244;-71
2024/01/24 08:07:47;;;;;;;20.13;3.23;;;;;11.80;101042.00;;;;4912955;28;20221;-73
2024/01/24 08:10:33;;;;;;;17.87;3.03;;;;;11.80;101043.00;;;;4944442;28;20258;-74
2024/01/24 08:13:20;;;;;;;9.47;2.50;;;;;11.80;101024.00;;;;4887288;29;20234;-74
2024/01/24 08:16:08;;;;;;;12.03;2.93;;;;;11.70;101071.00;;;;4896862;29;20309;-74
2024/01/24 08:18:55;;;;;;;19.67;3.27;;;;;11.70;101068.00;;;;4884656;29;20239;-73
2024/01/24 08:21:41;;;;;;;14.07;2.20;;;;;11.70;101090.00;;;;4913092;29;20314;-74
2024/01/24 08:24:28;;;;;;;9.37;2.67;;;;;11.70;101089.00;;;;4897874;29;20902;-73
2024/01/24 08:27:15;;;;;;;12.53;2.43;;;;;11.70;101062.00;;;;4937936;29;20221;-75
2024/01/24 08:30:01;;;;;;;14.07;2.43;;;;;11.70;101064.00;;;;4889840;29;20256;-73
2024/01/24 08:32:50;;;;;;;13.67;2.60;;;;;11.70;101087.00;;;;4872509;29;20220;-73
2024/01/24 08:35:36;;;;;;;8.97;2.10;;;;;11.60;101093.00;;;;4914087;29;20264;-73
2024/01/24 08:38:22;;;;;;;24.00;2.97;;;;;11.60;101103.00;;;;4849428;29;20299;-73
2024/01/24 08:41:10;;;;;;;8.50;2.30;;;;;11.70;101115.00;;;;4911431;29;20288;-72
2024/01/24 08:43:57;;;;;;;19.93;3.17;;;;;11.70;101102.00;;;;4895512;29;20251;-73
2024/01/24 08:46:43;;;;;;;20.20;2.43;;;;;11.60;101122.00;;;;4859728;29;20221;-73
2024/01/24 08:49:31;;;;;;;17.83;2.83;;;;;11.60;101120.00;;;;4907295;29;20229;-74
2024/01/24 08:52:18;;;;;;;9.10;2.67;;;;;11.70;101119.00;;;;4910982;29;20637;-73
2024/01/24 08:55:06;;;;;;;24.23;3.23;;;;;11.70;101126.00;;;;4918850;28;20415;-72
2024/01/24 08:57:52;;;;;;;13.27;2.97;;;;;11.70;101120.00;;;;4905598;29;20216;-72
2024/01/24 09:00:39;;;;;;;10.40;2.37;;;;;11.80;101112.00;;;;4908671;29;20316;-72
2024/01/24 09:03:25;;;;;;;14.27;2.70;;;;;11.70;101146.00;;;;4886195;29;20446;-73
2024/01/24 09:06:13;;;;;;;14.13;2.80;;;;;11.80;101165.00;;;;4937609;29;20236;-73
2024/01/24 09:08:59;;;;;;;12.47;2.47;;;;;11.80;101177.00;;;;4885988;29;20236;-73
2024/01/24 09:11:46;;;;;;;12.17;2.43;;;;;11.80;101161.00;;;;4885884;29;20310;-73
2024/01/24 09:14:44;;;;;;;21.97;3.17;;;;;11.80;101168.00;;;;4900557;29;20232;-72
2024/01/24 09:17:32;;;;;;;12.67;2.43;;;;;11.80;101171.00;;;;4893434;29;20238;-72
2024/01/24 09:20:18;;;;;;;12.80;2.40;;;;;11.80;101162.00;;;;4902288;29;20268;-73
2024/01/24 09:23:06;;;;;;;11.80;2.53;;;;;11.80;101174.00;;;;4884099;29;20285;-72
2024/01/24 09:25:52;;;;;;;13.47;2.77;;;;;11.80;101176.00;;;;4888001;28;20238;-73
2024/01/24 09:28:39;;;;;;;16.07;2.70;;;;;11.80;101179.00;;;;4926319;29;20294;-74
2024/01/24 09:31:25;;;;;;;15.83;3.33;;;;;11.80;101216.00;;;;4902951;29;20233;-73
2024/01/24 09:34:12;;;;;;;13.33;2.67;;;;;11.80;101233.00;;;;4866456;29;20236;-73
2024/01/24 09:36:59;;;;;;;12.53;3.23;;;;;11.80;101223.00;;;;4832754;29;20382;-70
2024/01/24 09:39:47;;;;;;;12.40;2.80;;;;;11.90;101209.00;;;;4839065;29;21129;-73
2024/01/24 09:42:40;;;;;;;13.90;2.30;;;;;11.90;101219.00;;;;4898838;29;20385;-74
2024/01/24 09:45:28;;;;;;;14.63;3.20;;;;;11.90;101219.00;;;;4871957;29;20245;-73
2024/01/24 09:48:16;;;;;;;7.80;1.83;;;;;12.00;101212.00;;;;4900436;29;20229;-73
2024/01/24 09:51:03;;;;;;;14.53;3.27;;;;;11.90;101234.00;;;;4864481;29;20654;-72
2024/01/24 09:53:51;;;;;;;12.20;3.07;;;;;11.90;101225.00;;;;4825567;29;20246;-74
2024/01/24 09:56:39;;;;;;;10.13;2.70;;;;;11.80;101270.00;;;;4897754;29;20218;-73
2024/01/24 09:59:25;;;;;;;10.27;2.80;;;;;11.90;101283.00;;;;4869338;29;20359;-76
2024/01/24 10:02:12;;;;;;;17.87;3.13;;;;;11.90;101285.00;;;;4878559;29;20225;-74
2024/01/24 10:05:00;;;;;;;15.17;2.70;;;;;11.90;101277.00;;;;4863611;29;20369;-72
2024/01/24 10:07:46;;;;;;;13.73;2.73;;;;;11.90;101274.00;;;;4872461;29;20246;-74
2024/01/24 10:10:33;;;;;;;11.87;2.67;;;;;11.90;101279.00;;;;4891996;29;20221;-73
2024/01/24 10:13:20;;;;;;;7.03;2.57;;;;;12.00;101273.00;;;;4907528;29;20243;-72
2024/01/24 10:16:07;;;;;;;14.93;3.10;;;;;12.00;101282.00;;;;4851477;29;20229;-72
2024/01/24 10:18:56;;;;;;;11.10;2.73;;;;;12.00;101288.00;;;;4872954;29;20228;-72
2024/01/24 10:21:42;;;;;;;18.03;3.63;;;;;12.00;101294.00;;;;4901338;29;20722;-76
2024/01/24 10:24:31;;;;;;;8.33;2.33;;;;;12.00;101286.00;;;;4877223;29;20239;-75
2024/01/24 10:27:17;;;;;;;12.13;1.60;;;;;12.00;101285.00;;;;4884845;29;20221;-71
2024/01/24 10:30:09;;;;;;;13.47;2.40;;;;;12.00;101279.00;;;;4914285;29;20231;-75
2024/01/24 10:32:56;;;;;;;17.97;3.23;;;;;12.10;101294.00;;;;4878991;28;20990;-73
2024/01/24 10:35:43;;;;;;;15.77;2.77;;;;;12.20;101279.00;;;;4861406;28;21018;-72
2024/01/24 10:38:31;;;;;;;13.43;3.90;;;;;12.10;101275.00;;;;4944721;28;20225;-73
2024/01/24 10:41:20;;;;;;;10.90;3.20;;;;;12.20;101275.00;;;;4875037;29;20238;-74
2024/01/24 10:44:09;;;;;;;18.23;3.40;;;;;12.20;101267.00;;;;4853055;29;20238;-72
2024/01/24 10:46:57;;;;;;;7.60;1.87;;;;;12.20;101294.00;;;;4853057;29;20452;-73
2024/01/24 10:49:44;;;;;;;8.13;2.77;;;;;12.40;101316.00;;;;4841297;29;20231;-73
2024/01/24 10:52:32;;;;;;;14.50;2.73;;;;;12.40;101305.00;;;;4902999;29;20291;-73
2024/01/24 10:55:22;;;;;;;21.77;3.37;;;;;12.50;101293.00;;;;4874650;29;20309;-73
2024/01/24 10:58:10;;;;;;;5.93;2.87;;;;;12.50;101301.00;;;;4875208;29;20213;-73
2024/01/24 11:00:56;;;;;;;9.80;2.40;;;;;12.40;101309.00;;;;4854261;29;20260;-73
2024/01/24 11:03:49;;;;;;;6.27;2.07;;;;;12.30;101311.00;;;;4866407;29;20336;-73
2024/01/24 11:06:39;;;;;;;17.97;2.63;;;;;12.20;101313.00;;;;4879424;29;20235;-72
2024/01/24 11:09:31;;;;;;;15.00;3.33;;;;;12.30;101314.00;;;;4899461;29;20705;-73
2024/01/24 11:12:18;;;;;;;17.53;3.17;;;;;12.30;101291.00;;;;4873474;29;20302;-74
2024/01/24 11:15:07;;;;;;;17.93;3.00;;;;;12.30;101342.00;;;;4867216;29;20302;-70
2024/01/24 11:18:19;;;;;;;7.10;2.20;;;;;12.30;101372.00;;;;4904690;29;20763;-74
2024/01/24 11:21:09;;;;;;;11.40;2.63;;;;;12.40;101357.00;;;;4849070;29;20245;-72
2024/01/24 11:23:55;;;;;;;15.33;3.30;;;;;12.40;101366.00;;;;4904348;29;20608;-73
2024/01/24 11:26:48;;;;;;;11.93;2.33;;;;;12.40;101364.00;;;;4877534;29;20224;-73
2024/01/24 11:29:35;;;;;;;10.00;2.30;;;;;12.40;101347.00;;;;4907714;29;20595;-72
2024/01/24 11:32:58;;;;;;;20.13;3.17;;;;;12.30;101357.00;;;;4900312;29;20719;-73
2024/01/24 11:35:47;;;;;;;11.17;2.80;;;;;12.30;101373.00;;;;4870060;29;20304;-72
2024/01/24 11:38:37;;;;;;;10.20;2.97;;;;;12.40;101393.00;;;;4878697;29;20232;-72
2024/01/24 11:41:26;;;;;;;8.50;2.00;;;;;12.40;101371.00;;;;4884362;29;20341;-74
2024/01/24 11:44:13;;;;;;;12.23;3.33;;;;;12.40;101388.00;;;;4900689;29;20224;-73
2024/01/24 11:47:00;;;;;;;13.07;2.73;;;;;12.40;101378.00;;;;4884404;29;20262;-73
2024/01/24 11:49:49;;;;;;;13.83;2.33;;;;;12.30;101380.00;;;;4896721;29;20349;-73
2024/01/24 11:52:35;;;;;;;12.67;2.30;;;;;12.30;101403.00;;;;4908587;29;20345;-71
2024/01/24 11:55:23;;;;;;;14.40;3.20;;;;;12.40;101398.00;;;;4868444;29;20229;-71
2024/01/24 11:58:10;;;;;;;9.97;3.23;;;;;12.30;101384.00;;;;4838127;29;20266;-71
2024/01/24 12:00:57;;;;;;;15.93;2.13;;;;;12.20;101381.00;;;;4894140;29;20252;-72
2024/01/24 12:03:47;;;;;;;12.97;2.50;;;;;12.20;101397.00;;;;4881597;29;20243;-72
2024/01/24 12:06:35;;;;;;;7.83;1.97;;;;;12.20;101433.00;;;;4896111;29;20214;-73
2024/01/24 12:09:23;;;;;;;11.50;2.33;;;;;12.10;101420.00;;;;4855922;29;20785;-72
2024/01/24 12:12:12;;;;;;;9.43;2.60;;;;;12.10;101439.00;;;;4900245;29;20222;-72
2024/01/24 12:14:58;;;;;;;11.97;2.03;;;;;12.20;101422.00;;;;4907159;29;20423;-74
2024/01/24 12:17:45;;;;;;;9.57;2.50;;;;;12.20;101432.00;;;;4875661;29;20224;-72
2024/01/24 12:20:31;;;;;;;15.43;2.60;;;;;12.20;101443.00;;;;4841641;29;20762;-76
2024/01/24 12:23:19;;;;;;;6.87;2.17;;;;;12.20;101431.00;;;;4852533;29;20878;-74
2024/01/24 12:26:05;;;;;;;11.37;2.50;;;;;12.10;101438.00;;;;4875631;29;20239;-74
2024/01/24 12:28:53;;;;;;;12.80;2.50;;;;;12.10;101464.00;;;;4902768;29;20618;-73
2024/01/24 12:31:42;;;;;;;10.07;2.20;;;;;12.20;101470.00;;;;4901495;29;20271;-73
2024/01/24 12:34:29;;;;;;;9.87;2.20;;;;;12.20;101466.00;;;;4893458;29;20244;-73
2024/01/24 12:37:16;;;;;;;14.27;2.80;;;;;12.10;101474.00;;;;4906332;29;20222;-73
2024/01/24 12:40:07;;;;;;;8.93;2.07;;;;;12.10;101470.00;;;;4880553;29;20265;-75
2024/01/24 12:42:55;;;;;;;19.20;2.83;;;;;12.10;101480.00;;;;4854924;29;20445;-74
2024/01/24 12:45:42;;;;;;;8.03;2.63;;;;;12.10;101484.00;;;;4905933;28;20237;-74
2024/01/24 12:48:29;;;;;;;7.57;2.30;;;;;12.10;101492.00;;;;4882713;29;20225;-75
2024/01/24 12:51:16;;;;;;;7.63;2.63;;;;;12.10;101472.00;;;;4896327;29;20320;-74
2024/01/24 12:54:01;;;;;;;8.00;2.10;;;;;12.10;101501.00;;;;4895967;28;20307;-73
2024/01/24 12:56:48;;;;;;;14.00;2.53;;;;;12.00;101501.00;;;;4913956;29;20341;-74
2024/01/24 12:59:37;;;;;;;11.93;2.03;;;;;12.00;101505.00;;;;4907925;29;20250;-73
2024/01/24 13:02:24;;;;;;;8.17;2.57;;;;;12.00;101504.00;;;;4927525;29;20772;-73
2024/01/24 13:05:11;;;;;;;10.40;2.73;;;;;12.00;101507.00;;;;4868203;28;20254;-72
2024/01/24 13:07:57;;;;;;;13.73;2.30;;;;;12.00;101500.00;;;;4913739;29;20254;-71
2024/01/24 13:10:44;;;;;;;12.87;2.37;;;;;11.90;101517.00;;;;4882834;29;20725;-73
2024/01/24 13:13:32;;;;;;;12.47;2.77;;;;;11.90;101509.00;;;;4885658;28;20839;-72
2024/01/24 13:16:18;;;;;;;12.97;2.20;;;;;11.90;101522.00;;;;4904575;29;20240;-72
2024/01/24 13:19:06;;;;;;;11.77;2.47;;;;;11.90;101503.00;;;;4881399;29;20321;-73
2024/01/24 13:21:52;;;;;;;12.10;1.97;;;;;11.90;101518.00;;;;4910455;29;20614;-74
2024/01/24 13:24:38;;;;;;;10.17;2.17;;;;;12.00;101514.00;;;;4907462;28;20739;-72
2024/01/24 13:27:25;;;;;;;10.00;2.10;;;;;12.00;101527.00;;;;4902698;29;20547;-73
2024/01/24 13:30:12;;;;;;;17.23;2.30;;;;;11.90;101535.00;;;;4918061;29;20281;-74
2024/01/24 13:32:58;;;;;;;7.50;2.30;;;;;11.90;101531.00;;;;4906939;29;20893;-72
2024/01/24 13:35:46;;;;;;;9.43;2.00;;;;;11.90;101564.00;;;;4876468;28;20331;-73
2024/01/24 13:38:32;;;;;;;7.70;2.23;;;;;11.90;101517.00;;;;4913309;29;20654;-74
2024/01/24 13:41:18;;;;;;;12.57;2.63;;;;;11.80;101571.00;;;;4893735;29;20315;-73